sensor_id;sensor_type;location;lat;lon;timestamp;temperature;humidity
31809;DHT22;18379;48.208;-1.518;2023-03-24T00:04:49;10.30;99.90
31809;DHT22;18379;48.208;-1.518;2023-03-24T00:09:55;10.20;99.90
31809;DHT22;18379;48.208;-1.518;2023-03-24T00:14:56;10.20;99.90
31809;DHT22;18379;48.208;-1.518;2023-03-24T00:19:57;10.20;99.90
31809;DHT22;18379;48.208;-1.518;2023-03-24T00:24:58;10.10;99.90
31809;DHT22;18379;48.208;-1.518;2023-03-24T00:29:59;10.10;99.90
31809;DHT22;18379;48.208;-1.518;2023-03-24T00:34:59;10.10;99.90
31809;DHT22;18379;48.208;-1.518;2023-03-24T00:40:00;10.10;99.90
31809;DHT22;18379;48.208;-1.518;2023-03-24T00:45:03;10.00;99.90
31809;DHT22;18379;48.208;-1.518;2023-03-24T00:50:07;10.00;99.90
31809;DHT22;18379;48.208;-1.518;2023-03-24T00:55:09;9.90;99.90
31809;DHT22;18379;48.208;-1.518;2023-03-24T01:00:10;9.90;99.90
31809;DHT22;18379;48.208;-1.518;2023-03-24T01:05:14;9.80;99.90
31809;DHT22;18379;48.208;-1.518;2023-03-24T01:10:19;9.80;99.90
31809;DHT22;18379;48.208;-1.518;2023-03-24T01:15:23;9.80;99.90
31809;DHT22;18379;48.208;-1.518;2023-03-24T01:20:24;9.80;99.90
31809;DHT22;18379;48.208;-1.518;2023-03-24T01:25:25;9.80;99.90
31809;DHT22;18379;48.208;-1.518;2023-03-24T01:30:28;9.80;99.90
31809;DHT22;18379;48.208;-1.518;2023-03-24T01:35:29;9.80;99.90
31809;DHT22;18379;48.208;-1.518;2023-03-24T01:40:32;9.80;99.90
31809;DHT22;18379;48.208;-1.518;2023-03-24T01:51:12;9.80;99.90
31809;DHT22;18379;48.208;-1.518;2023-03-24T01:56:14;9.80;99.90
31809;DHT22;18379;48.208;-1.518;2023-03-24T02:01:15;9.80;99.90
31809;DHT22;18379;48.208;-1.518;2023-03-24T02:06:17;9.80;99.90
31809;DHT22;18379;48.208;-1.518;2023-03-24T02:11:19;9.80;99.90
31809;DHT22;18379;48.208;-1.518;2023-03-24T02:49:05;9.80;99.90
31809;DHT22;18379;48.208;-1.518;2023-03-24T02:54:26;9.90;99.90
31809;DHT22;18379;48.208;-1.518;2023-03-24T03:00:23;9.90;99.90
31809;DHT22;18379;48.208;-1.518;2023-03-24T03:05:32;9.90;99.90
31809;DHT22;18379;48.208;-1.518;2023-03-24T03:10:40;9.80;99.90
31809;DHT22;18379;48.208;-1.518;2023-03-24T03:15:44;9.80;99.90
31809;DHT22;18379;48.208;-1.518;2023-03-24T03:20:49;9.80;99.90
31809;DHT22;18379;48.208;-1.518;2023-03-24T03:25:56;9.80;99.90
31809;DHT22;18379;48.208;-1.518;2023-03-24T03:31:00;9.80;99.90
31809;DHT22;18379;48.208;-1.518;2023-03-24T03:41:30;9.90;99.90
31809;DHT22;18379;48.208;-1.518;2023-03-24T03:46:31;9.90;99.90
31809;DHT22;18379;48.208;-1.518;2023-03-24T03:51:34;10.00;99.90
31809;DHT22;18379;48.208;-1.518;2023-03-24T03:56:36;10.00;99.90
31809;DHT22;18379;48.208;-1.518;2023-03-24T04:01:37;10.00;99.90
31809;DHT22;18379;48.208;-1.518;2023-03-24T04:12:29;10.00;99.90
31809;DHT22;18379;48.208;-1.518;2023-03-24T04:28:52;9.90;99.90
31809;DHT22;18379;48.208;-1.518;2023-03-24T04:34:10;9.80;99.90
31809;DHT22;18379;48.208;-1.518;2023-03-24T04:39:17;9.80;99.90
31809;DHT22;18379;48.208;-1.518;2023-03-24T04:44:19;9.80;99.90
31809;DHT22;18379;48.208;-1.518;2023-03-24T04:49:24;9.80;99.90
31809;DHT22;18379;48.208;-1.518;2023-03-24T04:54:29;9.80;99.90
31809;DHT22;18379;48.208;-1.518;2023-03-24T04:59:36;9.90;99.90
31809;DHT22;18379;48.208;-1.518;2023-03-24T05:04:40;10.00;99.90
31809;DHT22;18379;48.208;-1.518;2023-03-24T05:09:40;10.00;99.90
31809;DHT22;18379;48.208;-1.518;2023-03-24T05:14:41;10.10;99.90
31809;DHT22;18379;48.208;-1.518;2023-03-24T05:19:42;10.10;99.90
31809;DHT22;18379;48.208;-1.518;2023-03-24T05:24:43;10.20;99.90
31809;DHT22;18379;48.208;-1.518;2023-03-24T05:29:43;10.10;99.90
31809;DHT22;18379;48.208;-1.518;2023-03-24T05:34:44;10.00;99.90
31809;DHT22;18379;48.208;-1.518;2023-03-24T05:39:45;10.00;99.90
31809;DHT22;18379;48.208;-1.518;2023-03-24T05:44:46;10.10;99.90
31809;DHT22;18379;48.208;-1.518;2023-03-24T05:49:47;10.00;99.90
31809;DHT22;18379;48.208;-1.518;2023-03-24T05:54:48;10.00;99.90
31809;DHT22;18379;48.208;-1.518;2023-03-24T05:59:51;9.90;99.90
31809;DHT22;18379;48.208;-1.518;2023-03-24T06:04:52;9.90;99.90
31809;DHT22;18379;48.208;-1.518;2023-03-24T06:09:59;9.90;99.90
31809;DHT22;18379;48.208;-1.518;2023-03-24T06:15:04;9.90;99.90
31809;DHT22;18379;48.208;-1.518;2023-03-24T06:20:05;10.00;99.90
31809;DHT22;18379;48.208;-1.518;2023-03-24T06:25:15;10.10;99.90
31809;DHT22;18379;48.208;-1.518;2023-03-24T06:30:17;10.20;99.90
31809;DHT22;18379;48.208;-1.518;2023-03-24T06:35:18;10.20;99.90
31809;DHT22;18379;48.208;-1.518;2023-03-24T06:40:19;10.30;99.90
31809;DHT22;18379;48.208;-1.518;2023-03-24T06:45:20;10.30;99.90
31809;DHT22;18379;48.208;-1.518;2023-03-24T06:50:21;10.40;99.90
31809;DHT22;18379;48.208;-1.518;2023-03-24T06:55:22;10.60;99.90
31809;DHT22;18379;48.208;-1.518;2023-03-24T07:00:26;10.50;99.90
31809;DHT22;18379;48.208;-1.518;2023-03-24T07:05:28;10.60;99.90
31809;DHT22;18379;48.208;-1.518;2023-03-24T07:10:30;10.60;99.90
31809;DHT22;18379;48.208;-1.518;2023-03-24T07:15:31;10.60;99.90
31809;DHT22;18379;48.208;-1.518;2023-03-24T07:20:32;10.60;99.90
31809;DHT22;18379;48.208;-1.518;2023-03-24T07:25:32;10.80;99.90
31809;DHT22;18379;48.208;-1.518;2023-03-24T07:30:34;10.80;99.90
31809;DHT22;18379;48.208;-1.518;2023-03-24T07:35:35;10.90;99.90
31809;DHT22;18379;48.208;-1.518;2023-03-24T07:40:36;10.90;99.90
31809;DHT22;18379;48.208;-1.518;2023-03-24T07:45:37;11.00;99.90
31809;DHT22;18379;48.208;-1.518;2023-03-24T07:50:38;11.00;99.90
31809;DHT22;18379;48.208;-1.518;2023-03-24T07:55:39;11.30;99.90
31809;DHT22;18379;48.208;-1.518;2023-03-24T08:00:40;11.40;99.90
31809;DHT22;18379;48.208;-1.518;2023-03-24T08:05:42;11.60;99.90
31809;DHT22;18379;48.208;-1.518;2023-03-24T08:10:43;11.70;99.90
31809;DHT22;18379;48.208;-1.518;2023-03-24T08:15:45;11.60;99.90
31809;DHT22;18379;48.208;-1.518;2023-03-24T08:20:48;11.80;99.90
31809;DHT22;18379;48.208;-1.518;2023-03-24T08:25:49;12.00;99.90
31809;DHT22;18379;48.208;-1.518;2023-03-24T08:30:50;12.20;99.90
31809;DHT22;18379;48.208;-1.518;2023-03-24T08:35:51;12.30;99.90
31809;DHT22;18379;48.208;-1.518;2023-03-24T08:40:59;12.10;99.90
31809;DHT22;18379;48.208;-1.518;2023-03-24T08:46:02;12.10;99.90
31809;DHT22;18379;48.208;-1.518;2023-03-24T08:51:14;12.20;99.90
31809;DHT22;18379;48.208;-1.518;2023-03-24T08:56:15;12.20;99.90
31809;DHT22;18379;48.208;-1.518;2023-03-24T09:01:16;12.30;99.90
31809;DHT22;18379;48.208;-1.518;2023-03-24T09:06:17;12.20;99.90
31809;DHT22;18379;48.208;-1.518;2023-03-24T09:11:20;12.10;99.90
31809;DHT22;18379;48.208;-1.518;2023-03-24T09:16:21;12.30;99.90
31809;DHT22;18379;48.208;-1.518;2023-03-24T09:21:22;12.70;99.90
31809;DHT22;18379;48.208;-1.518;2023-03-24T09:26:23;13.00;99.90
31809;DHT22;18379;48.208;-1.518;2023-03-24T09:31:24;13.00;99.90
31809;DHT22;18379;48.208;-1.518;2023-03-24T09:36:25;13.10;99.90
31809;DHT22;18379;48.208;-1.518;2023-03-24T09:41:28;13.20;99.90
31809;DHT22;18379;48.208;-1.518;2023-03-24T09:46:43;13.20;99.90
31809;DHT22;18379;48.208;-1.518;2023-03-24T09:51:45;13.20;99.90
31809;DHT22;18379;48.208;-1.518;2023-03-24T09:56:46;13.40;99.90
31809;DHT22;18379;48.208;-1.518;2023-03-24T10:01:48;13.40;99.90
31809;DHT22;18379;48.208;-1.518;2023-03-24T10:06:56;13.50;99.90
31809;DHT22;18379;48.208;-1.518;2023-03-24T10:23:19;13.50;99.90
31809;DHT22;18379;48.208;-1.518;2023-03-24T10:28:51;13.40;99.90
31809;DHT22;18379;48.208;-1.518;2023-03-24T10:33:55;13.40;99.90
31809;DHT22;18379;48.208;-1.518;2023-03-24T10:38:56;14.00;99.90
31809;DHT22;18379;48.208;-1.518;2023-03-24T10:43:57;14.00;99.90
31809;DHT22;18379;48.208;-1.518;2023-03-24T10:49:12;13.80;99.90
31809;DHT22;18379;48.208;-1.518;2023-03-24T10:54:22;13.40;99.90
31809;DHT22;18379;48.208;-1.518;2023-03-24T10:59:49;13.00;99.90
31809;DHT22;18379;48.208;-1.518;2023-03-24T11:05:01;12.70;99.90
31809;DHT22;18379;48.208;-1.518;2023-03-24T11:15:23;13.20;99.90
31809;DHT22;18379;48.208;-1.518;2023-03-24T11:20:34;13.40;99.90
31809;DHT22;18379;48.208;-1.518;2023-03-24T11:25:39;13.60;99.90
31809;DHT22;18379;48.208;-1.518;2023-03-24T11:30:51;14.20;99.90
31809;DHT22;18379;48.208;-1.518;2023-03-24T11:35:53;14.10;99.90
31809;DHT22;18379;48.208;-1.518;2023-03-24T11:40:59;14.50;99.90
31809;DHT22;18379;48.208;-1.518;2023-03-24T11:46:17;14.00;99.90
31809;DHT22;18379;48.208;-1.518;2023-03-24T11:51:35;13.80;99.90
31809;DHT22;18379;48.208;-1.518;2023-03-24T11:56:43;14.20;99.90
31809;DHT22;18379;48.208;-1.518;2023-03-24T12:02:17;13.50;99.90
31809;DHT22;18379;48.208;-1.518;2023-03-24T12:18:11;13.40;99.90
31809;DHT22;18379;48.208;-1.518;2023-03-24T12:39:12;12.70;99.90
31809;DHT22;18379;48.208;-1.518;2023-03-24T12:55:02;12.40;99.90
31809;DHT22;18379;48.208;-1.518;2023-03-24T13:00:11;13.10;99.90
31809;DHT22;18379;48.208;-1.518;2023-03-24T13:05:19;13.80;99.90
31809;DHT22;18379;48.208;-1.518;2023-03-24T13:10:27;14.10;99.90
31809;DHT22;18379;48.208;-1.518;2023-03-24T13:15:44;14.40;99.90
31809;DHT22;18379;48.208;-1.518;2023-03-24T13:20:59;14.70;99.90
31809;DHT22;18379;48.208;-1.518;2023-03-24T13:31:09;14.60;99.90
31809;DHT22;18379;48.208;-1.518;2023-03-24T13:36:26;15.00;99.90
31809;DHT22;18379;48.208;-1.518;2023-03-24T13:41:34;14.90;99.90
31809;DHT22;18379;48.208;-1.518;2023-03-24T13:46:39;14.50;99.90
31809;DHT22;18379;48.208;-1.518;2023-03-24T13:51:43;14.70;99.90
31809;DHT22;18379;48.208;-1.518;2023-03-24T13:56:53;14.20;99.90
31809;DHT22;18379;48.208;-1.518;2023-03-24T14:07:41;14.20;99.90
31809;DHT22;18379;48.208;-1.518;2023-03-24T14:23:47;15.00;99.90
31809;DHT22;18379;48.208;-1.518;2023-03-24T14:28:52;14.10;99.90
31809;DHT22;18379;48.208;-1.518;2023-03-24T14:39:32;12.60;99.90
31809;DHT22;18379;48.208;-1.518;2023-03-24T14:49:54;13.00;99.90
31809;DHT22;18379;48.208;-1.518;2023-03-24T15:00:17;9.90;99.90
31809;DHT22;18379;48.208;-1.518;2023-03-24T15:05:28;9.90;99.90
31809;DHT22;18379;48.208;-1.518;2023-03-24T15:10:42;10.10;99.90
31809;DHT22;18379;48.208;-1.518;2023-03-24T15:15:46;10.80;99.90
31809;DHT22;18379;48.208;-1.518;2023-03-24T15:20:48;12.00;99.90
31809;DHT22;18379;48.208;-1.518;2023-03-24T15:25:50;12.20;99.90
31809;DHT22;18379;48.208;-1.518;2023-03-24T15:30:52;12.80;99.90
31809;DHT22;18379;48.208;-1.518;2023-03-24T15:35:55;13.30;99.90
31809;DHT22;18379;48.208;-1.518;2023-03-24T15:41:07;13.60;99.90
31809;DHT22;18379;48.208;-1.518;2023-03-24T15:46:24;13.40;99.90
31809;DHT22;18379;48.208;-1.518;2023-03-24T15:51:46;13.00;99.90
31809;DHT22;18379;48.208;-1.518;2023-03-24T15:57:13;12.80;99.90
31809;DHT22;18379;48.208;-1.518;2023-03-24T16:02:27;13.50;99.90
31809;DHT22;18379;48.208;-1.518;2023-03-24T16:07:32;13.80;99.90
31809;DHT22;18379;48.208;-1.518;2023-03-24T16:12:35;13.10;99.90
31809;DHT22;18379;48.208;-1.518;2023-03-24T16:17:36;12.40;99.90
31809;DHT22;18379;48.208;-1.518;2023-03-24T16:22:37;12.10;99.90
31809;DHT22;18379;48.208;-1.518;2023-03-24T16:27:38;12.20;99.90
31809;DHT22;18379;48.208;-1.518;2023-03-24T16:32:39;12.20;99.90
31809;DHT22;18379;48.208;-1.518;2023-03-24T16:37:40;11.90;99.90
31809;DHT22;18379;48.208;-1.518;2023-03-24T16:42:41;11.80;99.90
31809;DHT22;18379;48.208;-1.518;2023-03-24T16:47:43;11.80;99.90
31809;DHT22;18379;48.208;-1.518;2023-03-24T16:52:46;11.60;99.90
31809;DHT22;18379;48.208;-1.518;2023-03-24T16:57:46;10.80;99.90
31809;DHT22;18379;48.208;-1.518;2023-03-24T17:02:47;10.00;99.90
31809;DHT22;18379;48.208;-1.518;2023-03-24T17:07:49;9.60;99.90
31809;DHT22;18379;48.208;-1.518;2023-03-24T17:12:52;9.60;99.90
31809;DHT22;18379;48.208;-1.518;2023-03-24T17:17:54;9.50;99.90
31809;DHT22;18379;48.208;-1.518;2023-03-24T17:23:00;9.40;99.90
31809;DHT22;18379;48.208;-1.518;2023-03-24T17:28:19;9.50;99.90
31809;DHT22;18379;48.208;-1.518;2023-03-24T17:33:20;9.60;99.90
31809;DHT22;18379;48.208;-1.518;2023-03-24T17:38:21;9.40;99.90
31809;DHT22;18379;48.208;-1.518;2023-03-24T17:43:22;9.40;99.90
31809;DHT22;18379;48.208;-1.518;2023-03-24T17:48:23;9.30;99.90
31809;DHT22;18379;48.208;-1.518;2023-03-24T17:53:24;9.30;99.90
31809;DHT22;18379;48.208;-1.518;2023-03-24T17:58:27;9.30;99.90
31809;DHT22;18379;48.208;-1.518;2023-03-24T18:03:29;9.30;99.90
31809;DHT22;18379;48.208;-1.518;2023-03-24T18:08:30;9.40;99.90
31809;DHT22;18379;48.208;-1.518;2023-03-24T18:13:31;9.30;99.90
31809;DHT22;18379;48.208;-1.518;2023-03-24T18:18:36;9.30;99.90
31809;DHT22;18379;48.208;-1.518;2023-03-24T18:23:38;9.30;99.90
31809;DHT22;18379;48.208;-1.518;2023-03-24T18:28:39;9.20;99.90
31809;DHT22;18379;48.208;-1.518;2023-03-24T18:33:41;9.20;99.90
31809;DHT22;18379;48.208;-1.518;2023-03-24T18:38:45;9.20;99.90
31809;DHT22;18379;48.208;-1.518;2023-03-24T18:43:46;9.20;99.90
31809;DHT22;18379;48.208;-1.518;2023-03-24T18:48:47;9.10;99.90
31809;DHT22;18379;48.208;-1.518;2023-03-24T18:53:48;9.00;99.90
31809;DHT22;18379;48.208;-1.518;2023-03-24T18:58:49;9.00;99.90
31809;DHT22;18379;48.208;-1.518;2023-03-24T19:03:52;9.00;99.90
31809;DHT22;18379;48.208;-1.518;2023-03-24T19:08:52;9.00;99.90
31809;DHT22;18379;48.208;-1.518;2023-03-24T19:13:56;9.00;99.90
31809;DHT22;18379;48.208;-1.518;2023-03-24T19:18:57;9.10;99.90
31809;DHT22;18379;48.208;-1.518;2023-03-24T19:23:59;9.10;99.90
31809;DHT22;18379;48.208;-1.518;2023-03-24T19:29:00;9.10;99.90
31809;DHT22;18379;48.208;-1.518;2023-03-24T19:34:01;9.10;99.90
31809;DHT22;18379;48.208;-1.518;2023-03-24T19:39:02;9.00;99.90
31809;DHT22;18379;48.208;-1.518;2023-03-24T19:44:04;9.00;99.90
31809;DHT22;18379;48.208;-1.518;2023-03-24T19:49:05;8.90;99.90
31809;DHT22;18379;48.208;-1.518;2023-03-24T19:54:05;8.90;99.90
31809;DHT22;18379;48.208;-1.518;2023-03-24T19:59:09;8.80;99.90
31809;DHT22;18379;48.208;-1.518;2023-03-24T20:04:10;8.80;99.90
31809;DHT22;18379;48.208;-1.518;2023-03-24T20:09:12;8.80;99.90
31809;DHT22;18379;48.208;-1.518;2023-03-24T20:14:13;8.80;99.90
31809;DHT22;18379;48.208;-1.518;2023-03-24T20:19:16;8.90;99.90
31809;DHT22;18379;48.208;-1.518;2023-03-24T20:24:17;8.90;99.90
31809;DHT22;18379;48.208;-1.518;2023-03-24T20:29:18;9.00;99.90
31809;DHT22;18379;48.208;-1.518;2023-03-24T20:34:19;9.10;99.90
31809;DHT22;18379;48.208;-1.518;2023-03-24T20:39:20;9.20;99.90
31809;DHT22;18379;48.208;-1.518;2023-03-24T20:44:20;9.20;99.90
31809;DHT22;18379;48.208;-1.518;2023-03-24T20:49:22;9.10;99.90
31809;DHT22;18379;48.208;-1.518;2023-03-24T20:54:23;9.10;99.90
31809;DHT22;18379;48.208;-1.518;2023-03-24T20:59:25;9.20;99.90
31809;DHT22;18379;48.208;-1.518;2023-03-24T21:04:25;9.10;99.90
31809;DHT22;18379;48.208;-1.518;2023-03-24T21:09:26;9.20;99.90
31809;DHT22;18379;48.208;-1.518;2023-03-24T21:14:27;9.10;99.90
31809;DHT22;18379;48.208;-1.518;2023-03-24T21:19:29;9.00;99.90
31809;DHT22;18379;48.208;-1.518;2023-03-24T21:24:32;9.00;99.90
31809;DHT22;18379;48.208;-1.518;2023-03-24T21:29:32;9.00;99.90
31809;DHT22;18379;48.208;-1.518;2023-03-24T21:34:33;9.00;99.90
31809;DHT22;18379;48.208;-1.518;2023-03-24T21:39:34;9.10;99.90
31809;DHT22;18379;48.208;-1.518;2023-03-24T21:44:36;9.20;99.90
31809;DHT22;18379;48.208;-1.518;2023-03-24T21:49:39;9.30;99.90
31809;DHT22;18379;48.208;-1.518;2023-03-24T21:54:42;9.40;99.90
31809;DHT22;18379;48.208;-1.518;2023-03-24T21:59:43;9.40;99.90
31809;DHT22;18379;48.208;-1.518;2023-03-24T22:04:44;9.40;99.90
31809;DHT22;18379;48.208;-1.518;2023-03-24T22:09:48;9.50;99.90
31809;DHT22;18379;48.208;-1.518;2023-03-24T22:14:50;9.50;99.90
31809;DHT22;18379;48.208;-1.518;2023-03-24T22:19:51;9.50;99.90
31809;DHT22;18379;48.208;-1.518;2023-03-24T22:24:52;9.50;99.90
31809;DHT22;18379;48.208;-1.518;2023-03-24T22:29:53;9.60;99.90
31809;DHT22;18379;48.208;-1.518;2023-03-24T22:34:54;9.70;99.90
31809;DHT22;18379;48.208;-1.518;2023-03-24T22:39:54;9.70;99.90
31809;DHT22;18379;48.208;-1.518;2023-03-24T22:44:55;9.80;99.90
31809;DHT22;18379;48.208;-1.518;2023-03-24T22:49:56;9.80;99.90
31809;DHT22;18379;48.208;-1.518;2023-03-24T22:54:57;9.80;99.90
31809;DHT22;18379;48.208;-1.518;2023-03-24T22:59:58;9.80;99.90
31809;DHT22;18379;48.208;-1.518;2023-03-24T23:05:01;9.80;99.90
31809;DHT22;18379;48.208;-1.518;2023-03-24T23:10:02;9.80;99.90
31809;DHT22;18379;48.208;-1.518;2023-03-24T23:15:06;9.90;99.90
31809;DHT22;18379;48.208;-1.518;2023-03-24T23:20:08;9.80;99.90
31809;DHT22;18379;48.208;-1.518;2023-03-24T23:25:10;9.80;99.90
31809;DHT22;18379;48.208;-1.518;2023-03-24T23:30:16;9.80;99.90
31809;DHT22;18379;48.208;-1.518;2023-03-24T23:35:18;9.70;99.90
31809;DHT22;18379;48.208;-1.518;2023-03-24T23:40:19;9.70;99.90
31809;DHT22;18379;48.208;-1.518;2023-03-24T23:45:20;9.70;99.90
31809;DHT22;18379;48.208;-1.518;2023-03-24T23:50:21;9.60;99.90
31809;DHT22;18379;48.208;-1.518;2023-03-24T23:55:21;9.60;99.90
